Time;durP1;ratioP1;P1;durP2;ratioP2;P2;SDS_P1;SDS_P2;PMS_P1;PMS_P2;Temp;Humidity;BMP_temperature;BMP_pressure;BME280_temperature;BME280_humidity;BME280_pressure;Samples;Min_cycle;Max_cycle;Signal;HPM_P1;HPM_P2
2021/09/06 00:01:28;;;;;;;6.83;4.43;;;;;;;;;;4538902;28;20040;-61
2021/09/06 00:03:38;;;;;;;6.97;5.00;;;;;;;;;;4537092;28;20091;-61
2021/09/06 00:05:49;;;;;;;6.93;4.90;;;;;;;;;;4538398;28;20550;-61
2021/09/06 00:08:00;;;;;;;6.83;4.63;;;;;;;;;;4538219;28;28016;-61
2021/09/06 00:10:32;;;;;;;6.13;4.60;;;;;;;;;;4538671;28;20037;-61
2021/09/06 00:12:43;;;;;;;6.22;4.38;;;;;;;;;;4538662;28;20051;-61
2021/09/06 00:14:54;;;;;;;6.67;4.53;;;;;;;;;;4538071;28;20036;-61
2021/09/06 00:17:04;;;;;;;5.57;4.43;;;;;;;;;;4538595;28;20083;-61
2021/09/06 00:19:15;;;;;;;5.70;4.30;;;;;;;;;;4538362;28;20033;-61
2021/09/06 00:21:25;;;;;;;5.90;4.47;;;;;;;;;;4527512;28;20477;-61
2021/09/06 00:23:37;;;;;;;5.85;4.40;;;;;;;;;;4536774;28;20149;-60
2021/09/06 00:25:48;;;;;;;5.97;4.30;;;;;;;;;;4538447;28;20068;-61
2021/09/06 00:27:58;;;;;;;6.20;4.50;;;;;;;;;;4538835;28;20124;-61
2021/09/06 00:30:09;;;;;;;6.07;4.50;;;;;;;;;;4538305;28;20071;-61
2021/09/06 00:32:19;;;;;;;5.45;3.90;;;;;;;;;;4537157;28;20079;-61
2021/09/06 00:34:30;;;;;;;4.77;3.87;;;;;;;;;;4538615;28;20041;-61
2021/09/06 00:36:41;;;;;;;5.13;4.17;;;;;;;;;;4520382;28;20134;-61
2021/09/06 00:38:51;;;;;;;6.07;4.13;;;;;;;;;;4538458;28;20025;-61
2021/09/06 00:41:02;;;;;;;6.17;4.40;;;;;;;;;;4553641;28;20489;-61
2021/09/06 00:43:13;;;;;;;6.43;4.33;;;;;;;;;;4537444;28;20028;-61
2021/09/06 00:45:24;;;;;;;5.97;3.92;;;;;;;;;;4538393;28;20068;-61
2021/09/06 00:47:35;;;;;;;5.00;3.87;;;;;;;;;;4536569;28;20104;-61
2021/09/06 00:49:46;;;;;;;6.13;4.28;;;;;;;;;;4537001;28;20033;-61
2021/09/06 00:51:57;;;;;;;5.47;4.20;;;;;;;;;;4538642;28;20045;-61
2021/09/06 00:54:08;;;;;;;6.10;4.30;;;;;;;;;;4553796;28;20033;-61
2021/09/06 00:56:18;;;;;;;4.38;3.30;;;;;;;;;;4535757;28;20037;-61
2021/09/06 00:58:31;;;;;;;3.85;3.30;;;;;;;;;;4536431;28;20724;-62
2021/09/06 01:00:42;;;;;;;5.50;4.05;;;;;;;;;;4552854;28;20568;-61
2021/09/06 01:02:54;;;;;;;5.22;3.90;;;;;;;;;;4525983;28;20032;-61
2021/09/06 01:05:08;;;;;;;5.75;4.38;;;;;;;;;;4536682;28;20033;-61
2021/09/06 01:07:45;;;;;;;5.47;4.18;;;;;;;;;;4532810;28;20094;-61
2021/09/06 01:10:10;;;;;;;5.32;3.70;;;;;;;;;;4552857;28;20040;-61
2021/09/06 01:12:34;;;;;;;6.07;4.00;;;;;;;;;;4536306;28;20612;-61
2021/09/06 01:14:45;;;;;;;6.10;4.05;;;;;;;;;;4538032;28;20032;-61
2021/09/06 01:16:57;;;;;;;5.72;4.32;;;;;;;;;;4552590;28;20052;-63
2021/09/06 01:19:08;;;;;;;;;;;;;;;;;;4536901;28;20032;-61
2021/09/06 01:21:19;;;;;;;5.40;4.18;;;;;;;;;;4553140;28;20023;-61
2021/09/06 01:23:53;;;;;;;5.15;4.07;;;;;;;;;;4552780;28;20041;-61
2021/09/06 01:26:10;;;;;;;6.15;4.55;;;;;;;;;;4536507;28;20043;-61
2021/09/06 01:28:22;;;;;;;7.43;5.07;;;;;;;;;;4536298;28;20033;-61
2021/09/06 01:30:33;;;;;;;4.88;3.83;;;;;;;;;;4553094;28;20079;-61
2021/09/06 01:32:43;;;;;;;6.27;4.70;;;;;;;;;;4531166;28;20548;-61
2021/09/06 01:34:55;;;;;;;6.47;4.50;;;;;;;;;;4552869;28;20159;-61
2021/09/06 01:37:06;;;;;;;5.37;4.03;;;;;;;;;;4537368;28;20040;-61
2021/09/06 01:39:22;;;;;;;5.88;4.10;;;;;;;;;;4552669;28;20040;-61
2021/09/06 01:41:33;;;;;;;5.30;3.90;;;;;;;;;;4552926;28;20029;-60
2021/09/06 01:43:46;;;;;;;5.07;4.07;;;;;;;;;;4519354;28;20052;-61
2021/09/06 01:45:57;;;;;;;4.80;4.00;;;;;;;;;;4553233;28;20082;-61
2021/09/06 01:48:07;;;;;;;5.80;4.50;;;;;;;;;;4552863;28;20148;-61
2021/09/06 01:50:38;;;;;;;7.93;5.43;;;;;;;;;;4536371;28;20214;-60
2021/09/06 01:52:48;;;;;;;8.07;5.90;;;;;;;;;;4531261;28;20041;-61
2021/09/06 01:54:59;;;;;;;7.33;5.23;;;;;;;;;;4537163;28;20560;-61
2021/09/06 01:57:09;;;;;;;7.57;5.20;;;;;;;;;;4519524;28;20457;-61
2021/09/06 01:59:20;;;;;;;8.57;5.63;;;;;;;;;;4525468;28;20513;-61
2021/09/06 02:01:30;;;;;;;8.53;5.70;;;;;;;;;;4552593;28;20455;-61
2021/09/06 02:03:41;;;;;;;7.87;5.43;;;;;;;;;;4521501;28;20128;-61
2021/09/06 02:05:54;;;;;;;6.35;4.50;;;;;;;;;;4529685;28;20667;-61
2021/09/06 02:08:17;;;;;;;4.28;3.25;;;;;;;;;;4552168;28;20083;-61
2021/09/06 02:10:28;;;;;;;3.80;3.17;;;;;;;;;;4537340;28;20036;-62
2021/09/06 02:12:41;;;;;;;4.82;3.50;;;;;;;;;;4531067;28;20036;-61
2021/09/06 02:14:57;;;;;;;4.75;3.63;;;;;;;;;;4521614;28;20287;-61
2021/09/06 02:17:07;;;;;;;4.93;3.40;;;;;;;;;;4539354;28;20039;-61
2021/09/06 02:19:20;;;;;;;4.05;3.03;;;;;;;;;;4555165;28;20044;-61
2021/09/06 02:21:31;;;;;;;7.28;4.95;;;;;;;;;;4555510;28;20559;-61
2021/09/06 02:23:45;;;;;;;6.60;5.00;;;;;;;;;;4523351;28;20048;-61
2021/09/06 02:25:56;;;;;;;7.40;5.38;;;;;;;;;;4555823;28;20233;-61
2021/09/06 02:28:07;;;;;;;6.68;4.97;;;;;;;;;;4538973;28;20978;-61
2021/09/06 02:30:18;;;;;;;7.00;4.90;;;;;;;;;;4555314;28;20386;-61
2021/09/06 02:32:28;;;;;;;6.07;4.20;;;;;;;;;;4533349;28;20032;-61
2021/09/06 02:34:59;;;;;;;5.72;3.65;;;;;;;;;;4535226;28;20045;-62
2021/09/06 02:37:12;;;;;;;4.63;3.45;;;;;;;;;;4555269;28;20091;-62
2021/09/06 02:39:28;;;;;;;5.13;3.35;;;;;;;;;;4555011;28;20028;-61
2021/09/06 02:41:38;;;;;;;6.60;4.87;;;;;;;;;;4555226;28;20037;-61
2021/09/06 02:43:49;;;;;;;6.13;4.63;;;;;;;;;;4555202;28;20464;-62
2021/09/06 02:45:59;;;;;;;6.10;4.60;;;;;;;;;;4555417;28;20016;-61
2021/09/06 02:48:10;;;;;;;6.93;5.15;;;;;;;;;;4536993;28;20753;-62
2021/09/06 02:50:22;;;;;;;7.45;5.50;;;;;;;;;;4555244;28;20033;-61
2021/09/06 02:52:37;;;;;;;6.53;4.40;;;;;;;;;;4554903;28;20851;-61
2021/09/06 02:54:48;;;;;;;;;;;;;;;;;;4555638;28;20036;-62
2021/09/06 02:56:58;;;;;;;4.60;3.77;;;;;;;;;;4538389;28;19975;-62
2021/09/06 02:59:09;;;;;;;4.40;3.67;;;;;;;;;;4539519;28;20063;-62
2021/09/06 03:01:19;;;;;;;4.87;3.73;;;;;;;;;;4554785;28;20151;-62
2021/09/06 03:03:32;;;;;;;4.05;3.47;;;;;;;;;;4537864;28;20033;-62
2021/09/06 03:05:44;;;;;;;5.22;3.78;;;;;;;;;;4554742;28;20143;-61
2021/09/06 03:07:54;;;;;;;4.53;3.50;;;;;;;;;;4555510;28;20119;-62
2021/09/06 03:10:07;;;;;;;4.40;3.40;;;;;;;;;;4555163;28;20067;-63
2021/09/06 03:12:18;;;;;;;3.30;2.60;;;;;;;;;;4539348;28;20029;-62
2021/09/06 03:14:31;;;;;;;4.07;2.75;;;;;;;;;;4538444;28;20029;-61
2021/09/06 03:16:41;;;;;;;4.40;3.13;;;;;;;;;;4554791;28;20516;-61
2021/09/06 03:18:52;;;;;;;3.97;3.30;;;;;;;;;;4538061;28;20036;-61
2021/09/06 03:21:09;;;;;;;4.30;2.95;;;;;;;;;;4537783;28;20064;-61
2021/09/06 03:23:19;;;;;;;3.72;2.50;;;;;;;;;;4537133;28;20037;-61
2021/09/06 03:25:31;;;;;;;3.25;2.63;;;;;;;;;;4539308;28;20080;-62
2021/09/06 03:27:42;;;;;;;3.43;2.40;;;;;;;;;;4538499;28;20660;-61
2021/09/06 03:29:53;;;;;;;4.23;2.70;;;;;;;;;;4553993;28;20124;-61
2021/09/06 03:32:03;;;;;;;6.77;3.80;;;;;;;;;;4554805;28;20036;-62
2021/09/06 03:34:16;;;;;;;5.43;3.28;;;;;;;;;;4532152;28;20079;-61
2021/09/06 03:36:30;;;;;;;4.10;3.20;;;;;;;;;;4539379;28;20037;-62
2021/09/06 03:38:41;;;;;;;3.85;3.03;;;;;;;;;;4537894;28;20036;-61
2021/09/06 03:40:51;;;;;;;4.27;2.83;;;;;;;;;;4554313;28;20044;-62
2021/09/06 03:43:03;;;;;;;4.13;2.90;;;;;;;;;;4516587;28;20418;-62
2021/09/06 03:45:14;;;;;;;;;;;;;;;;;;4538778;28;20029;-62
2021/09/06 03:47:24;;;;;;;4.07;2.87;;;;;;;;;;4537544;28;19920;-61
2021/09/06 03:49:36;;;;;;;3.13;2.60;;;;;;;;;;4554157;28;20147;-61
2021/09/06 03:51:47;;;;;;;3.95;3.03;;;;;;;;;;4537127;28;20576;-61
2021/09/06 03:54:01;;;;;;;3.15;2.75;;;;;;;;;;4529145;28;20037;-61
2021/09/06 03:56:12;;;;;;;4.40;2.80;;;;;;;;;;4548181;28;20056;-61
2021/09/06 03:58:25;;;;;;;4.50;3.00;;;;;;;;;;4537007;28;20048;-61
2021/09/06 04:00:36;;;;;;;3.15;2.63;;;;;;;;;;4537300;28;20052;-61
2021/09/06 04:02:46;;;;;;;3.00;2.70;;;;;;;;;;4554170;28;20082;-61
2021/09/06 04:05:03;;;;;;;3.60;2.78;;;;;;;;;;4538434;28;20111;-61
2021/09/06 04:07:13;;;;;;;8.10;3.30;;;;;;;;;;4553685;28;20056;-62
2021/09/06 04:09:29;;;;;;;3.63;3.00;;;;;;;;;;4554152;28;20036;-61
2021/09/06 04:11:40;;;;;;;4.63;2.80;;;;;;;;;;4537319;28;20102;-61
2021/09/06 04:13:50;;;;;;;4.20;2.90;;;;;;;;;;4547055;28;20076;-61
2021/09/06 04:16:03;;;;;;;4.47;3.20;;;;;;;;;;4554117;28;20254;-61
2021/09/06 04:18:15;;;;;;;6.55;2.90;;;;;;;;;;4537137;28;20049;-61
2021/09/06 04:20:26;;;;;;;5.72;2.88;;;;;;;;;;4554185;28;20032;-61
2021/09/06 04:22:38;;;;;;;4.10;2.63;;;;;;;;;;4538323;28;20029;-61
2021/09/06 04:24:49;;;;;;;3.15;2.42;;;;;;;;;;4534080;28;20032;-61
2021/09/06 04:27:00;;;;;;;2.95;2.40;;;;;;;;;;4554011;28;20028;-61
2021/09/06 04:29:11;;;;;;;4.70;3.10;;;;;;;;;;4536559;28;21006;-61
2021/09/06 04:31:22;;;;;;;7.00;3.03;;;;;;;;;;4554155;28;20025;-61
2021/09/06 04:33:34;;;;;;;3.25;2.53;;;;;;;;;;4538679;28;20090;-61
2021/09/06 04:35:44;;;;;;;3.93;3.10;;;;;;;;;;4554034;28;20043;-62
2021/09/06 04:37:55;;;;;;;3.60;2.93;;;;;;;;;;4554002;28;20259;-61
2021/09/06 04:40:08;;;;;;;4.97;2.45;;;;;;;;;;4553153;28;20028;-62
2021/09/06 04:42:22;;;;;;;2.88;2.30;;;;;;;;;;4546778;28;20111;-61
2021/09/06 04:44:32;;;;;;;2.50;2.30;;;;;;;;;;4553931;28;20037;-61
2021/09/06 04:46:43;;;;;;;3.33;2.65;;;;;;;;;;4536866;28;20701;-61
2021/09/06 04:48:57;;;;;;;3.78;2.65;;;;;;;;;;4536587;28;20568;-61
2021/09/06 04:51:08;;;;;;;4.47;2.83;;;;;;;;;;4551085;28;20654;-61
2021/09/06 04:53:19;;;;;;;4.00;3.00;;;;;;;;;;4553634;28;20147;-62
2021/09/06 04:55:31;;;;;;;3.25;2.65;;;;;;;;;;4536071;28;20240;-61
2021/09/06 04:57:41;;;;;;;4.37;2.80;;;;;;;;;;4537632;28;20793;-62
2021/09/06 04:59:52;;;;;;;2.80;2.55;;;;;;;;;;4553433;28;20037;-61
2021/09/06 05:02:03;;;;;;;4.10;2.77;;;;;;;;;;4553050;28;20045;-61
2021/09/06 05:04:14;;;;;;;4.25;2.70;;;;;;;;;;4516107;28;20034;-62
2021/09/06 05:06:25;;;;;;;5.00;2.65;;;;;;;;;;4519388;28;20037;-61
2021/09/06 05:08:35;;;;;;;3.77;3.00;;;;;;;;;;4553176;28;20083;-62
2021/09/06 05:10:47;;;;;;;;;;;;;;;;;;4553148;28;20032;-61
2021/09/06 05:12:58;;;;;;;3.83;2.70;;;;;;;;;;4535911;28;20384;-61
2021/09/06 05:15:13;;;;;;;4.13;2.65;;;;;;;;;;4552159;28;20127;-62
2021/09/06 05:17:23;;;;;;;3.03;2.63;;;;;;;;;;4535540;28;20512;-61
2021/09/06 05:19:34;;;;;;;3.27;2.50;;;;;;;;;;4537677;28;20091;-62
2021/09/06 05:21:45;;;;;;;3.23;2.57;;;;;;;;;;4518520;28;20064;-62
2021/09/06 05:23:57;;;;;;;4.60;2.87;;;;;;;;;;4553012;28;20079;-61
2021/09/06 05:26:08;;;;;;;3.42;2.60;;;;;;;;;;4537636;28;20102;-61
2021/09/06 05:28:19;;;;;;;3.30;2.47;;;;;;;;;;4552282;28;20051;-61
2021/09/06 05:30:30;;;;;;;3.40;2.53;;;;;;;;;;4536912;28;20039;-61
2021/09/06 05:32:41;;;;;;;;;;;;;;;;;;4535724;28;21185;-61
2021/09/06 05:34:54;;;;;;;4.40;2.55;;;;;;;;;;4535331;28;19916;-62
2021/09/06 05:37:05;;;;;;;5.30;2.60;;;;;;;;;;4535124;28;20045;-61
2021/09/06 05:39:18;;;;;;;3.97;2.55;;;;;;;;;;4529620;28;20107;-62
2021/09/06 05:41:41;;;;;;;2.45;2.25;;;;;;;;;;4535091;28;20040;-61
2021/09/06 05:43:53;;;;;;;;;;;;;;;;;;4553148;28;20743;-62
2021/09/06 05:46:05;;;;;;;3.03;2.45;;;;;;;;;;4536005;28;19916;-61
2021/09/06 05:48:16;;;;;;;;;;;;;;;;;;4552378;28;20029;-62
2021/09/06 05:50:28;;;;;;;;;;;;;;;;;;4535813;28;19917;-61
2021/09/06 05:53:08;;;;;;;4.30;2.70;;;;;;;;;;4536855;28;19945;-61
2021/09/06 05:55:18;;;;;;;2.80;2.30;;;;;;;;;;4536257;28;20107;-61
2021/09/06 05:57:29;;;;;;;3.33;2.37;;;;;;;;;;4518665;28;20085;-62
2021/09/06 05:59:39;;;;;;;2.50;2.27;;;;;;;;;;4537361;28;20026;-62
2021/09/06 06:08:54;;;;;;;3.00;2.30;;;;;;;;;;4535111;28;20236;-61
2021/09/06 06:11:05;;;;;;;3.22;2.53;;;;;;;;;;4546359;28;20932;-61
2021/09/06 06:13:17;;;;;;;2.70;2.30;;;;;;;;;;4525092;28;20140;-61
2021/09/06 06:15:27;;;;;;;3.53;2.67;;;;;;;;;;4535997;28;20036;-61
2021/09/06 06:17:40;;;;;;;3.83;2.70;;;;;;;;;;4529551;28;20190;-62
2021/09/06 06:19:51;;;;;;;4.70;3.00;;;;;;;;;;4534386;28;20033;-61
2021/09/06 06:22:25;;;;;;;3.22;2.60;;;;;;;;;;4534142;28;20074;-61
2021/09/06 06:24:58;;;;;;;3.28;2.47;;;;;;;;;;4526748;28;20144;-61
2021/09/06 06:27:16;;;;;;;3.50;2.50;;;;;;;;;;4535209;28;20124;-61
2021/09/06 06:29:27;;;;;;;3.67;2.50;;;;;;;;;;4551767;28;20920;-61
2021/09/06 06:31:37;;;;;;;3.13;2.30;;;;;;;;;;4536962;28;20033;-61
2021/09/06 06:33:48;;;;;;;3.87;2.27;;;;;;;;;;4552656;28;20036;-61
2021/09/06 06:35:59;;;;;;;5.07;3.80;;;;;;;;;;4551645;28;20814;-61
2021/09/06 06:38:10;;;;;;;5.15;3.80;;;;;;;;;;4534672;28;20051;-61
2021/09/06 06:40:24;;;;;;;2.88;2.20;;;;;;;;;;4551560;28;20039;-61
2021/09/06 06:42:42;;;;;;;3.72;3.15;;;;;;;;;;4552305;28;20123;-61
2021/09/06 06:44:55;;;;;;;5.03;3.92;;;;;;;;;;4534573;28;20810;-61
2021/09/06 06:47:05;;;;;;;5.27;4.20;;;;;;;;;;4536640;28;20817;-61
2021/09/06 06:49:16;;;;;;;6.57;4.55;;;;;;;;;;4551321;28;20114;-62
2021/09/06 06:51:27;;;;;;;5.40;4.57;;;;;;;;;;4536300;28;20037;-61
2021/09/06 06:53:37;;;;;;;5.60;4.30;;;;;;;;;;4551708;28;20049;-61
2021/09/06 06:55:49;;;;;;;;;;;;;;;;;;4552467;28;20037;-61
2021/09/06 06:57:59;;;;;;;2.67;2.25;;;;;;;;;;4534985;28;20181;-59
2021/09/06 07:00:11;;;;;;;;;;;;;;;;;;4551929;28;20051;-59
2021/09/06 07:02:24;;;;;;;2.83;2.33;;;;;;;;;;4534872;28;19920;-62
2021/09/06 07:04:35;;;;;;;5.83;4.40;;;;;;;;;;4555153;28;20036;-60
2021/09/06 07:06:49;;;;;;;3.25;2.50;;;;;;;;;;4554755;28;20074;-60
2021/09/06 07:09:00;;;;;;;2.90;2.37;;;;;;;;;;4554126;28;20454;-60
2021/09/06 07:11:11;;;;;;;2.45;1.98;;;;;;;;;;4536998;28;20037;-60
2021/09/06 07:13:22;;;;;;;2.95;2.17;;;;;;;;;;4537810;28;20064;-60
2021/09/06 07:15:33;;;;;;;2.20;1.93;;;;;;;;;;4537777;28;20112;-60
2021/09/06 07:17:45;;;;;;;2.67;2.00;;;;;;;;;;4537859;28;20037;-60
2021/09/06 07:19:56;;;;;;;3.53;2.53;;;;;;;;;;4539079;28;20045;-60
2021/09/06 07:22:07;;;;;;;4.18;2.25;;;;;;;;;;4534813;28;20041;-60
2021/09/06 07:24:20;;;;;;;2.33;2.13;;;;;;;;;;4533838;28;20099;-60
2021/09/06 07:26:31;;;;;;;2.93;2.20;;;;;;;;;;4537532;28;20102;-60
2021/09/06 07:28:43;;;;;;;3.42;2.30;;;;;;;;;;4535883;28;21227;-60
2021/09/06 07:30:54;;;;;;;2.80;2.20;;;;;;;;;;4533873;28;20025;-60
2021/09/06 07:33:06;;;;;;;5.63;4.32;;;;;;;;;;4548266;28;20234;-60
2021/09/06 07:35:18;;;;;;;3.10;2.20;;;;;;;;;;4520793;28;20991;-61
2021/09/06 07:37:30;;;;;;;2.80;2.30;;;;;;;;;;4526393;28;20029;-60
2021/09/06 07:39:46;;;;;;;2.80;2.10;;;;;;;;;;4554474;28;20040;-60
2021/09/06 07:41:57;;;;;;;3.22;2.38;;;;;;;;;;4537080;28;20096;-60
2021/09/06 07:44:07;;;;;;;3.43;2.17;;;;;;;;;;4553560;28;20522;-61
2021/09/06 07:46:18;;;;;;;3.28;2.38;;;;;;;;;;4554123;28;20035;-60
2021/09/06 07:48:29;;;;;;;3.00;2.00;;;;;;;;;;4514754;28;20033;-61
2021/09/06 07:50:42;;;;;;;2.90;2.08;;;;;;;;;;4553344;28;20041;-60
2021/09/06 07:52:53;;;;;;;2.90;2.10;;;;;;;;;;4536376;28;20036;-61
2021/09/06 07:55:05;;;;;;;5.03;2.13;;;;;;;;;;4519646;28;20060;-61
2021/09/06 07:57:16;;;;;;;2.53;2.15;;;;;;;;;;4532730;28;20153;-61
2021/09/06 07:59:26;;;;;;;2.77;2.03;;;;;;;;;;4535234;28;20404;-61
2021/09/06 08:01:39;;;;;;;7.47;5.10;;;;;;;;;;4554875;28;20028;-61
2021/09/06 08:03:49;;;;;;;8.23;5.43;;;;;;;;;;4549689;28;20029;-60
2021/09/06 08:06:00;;;;;;;8.40;5.63;;;;;;;;;;4533563;28;20871;-60
2021/09/06 08:08:11;;;;;;;7.47;5.80;;;;;;;;;;4539784;28;21069;-60
2021/09/06 08:10:22;;;;;;;7.72;5.80;;;;;;;;;;4556910;28;20473;-61
2021/09/06 08:12:33;;;;;;;9.00;6.55;;;;;;;;;;4523291;28;20029;-61
2021/09/06 08:14:44;;;;;;;8.27;6.10;;;;;;;;;;4541223;28;20120;-60
2021/09/06 08:16:55;;;;;;;8.73;6.33;;;;;;;;;;4556780;28;20045;-61
2021/09/06 08:19:05;;;;;;;11.27;6.60;;;;;;;;;;4556674;28;20404;-61
2021/09/06 08:21:16;;;;;;;9.83;7.47;;;;;;;;;;4541879;28;20029;-61
2021/09/06 08:23:26;;;;;;;10.43;7.20;;;;;;;;;;4534653;28;20039;-61
2021/09/06 08:25:44;;;;;;;9.02;6.65;;;;;;;;;;4541964;28;20037;-61
2021/09/06 08:27:55;;;;;;;9.07;6.53;;;;;;;;;;4557042;28;20036;-61
2021/09/06 08:30:07;;;;;;;9.80;6.80;;;;;;;;;;4556972;28;20131;-60
2021/09/06 08:32:18;;;;;;;9.73;6.72;;;;;;;;;;4539640;28;20835;-60
2021/09/06 08:34:29;;;;;;;9.80;7.03;;;;;;;;;;4522959;28;20036;-60
2021/09/06 08:36:39;;;;;;;8.70;6.47;;;;;;;;;;4539942;28;20500;-61
2021/09/06 08:38:51;;;;;;;9.40;7.07;;;;;;;;;;4556172;28;20537;-60
2021/09/06 08:41:01;;;;;;;9.20;7.10;;;;;;;;;;4556661;28;20041;-61
2021/09/06 08:43:12;;;;;;;8.87;6.97;;;;;;;;;;4539760;28;20025;-60
2021/09/06 08:45:24;;;;;;;9.55;7.10;;;;;;;;;;4539302;28;20029;-60
2021/09/06 08:47:35;;;;;;;9.45;6.78;;;;;;;;;;4556391;28;20063;-60
2021/09/06 08:49:46;;;;;;;11.13;7.77;;;;;;;;;;4539542;28;20556;-61
2021/09/06 08:51:58;;;;;;;9.17;7.13;;;;;;;;;;4528205;28;20109;-61
2021/09/06 08:54:09;;;;;;;9.77;7.60;;;;;;;;;;4539729;28;20624;-60
2021/09/06 08:56:21;;;;;;;10.10;7.60;;;;;;;;;;4534529;28;20085;-61
2021/09/06 08:58:33;;;;;;;9.40;7.13;;;;;;;;;;4556359;28;20070;-61
2021/09/06 09:00:48;;;;;;;9.23;7.20;;;;;;;;;;4555858;28;20088;-61
2021/09/06 09:03:27;;;;;;;9.27;7.10;;;;;;;;;;4520425;28;20166;-60
2021/09/06 09:05:59;;;;;;;10.43;7.38;;;;;;;;;;4524944;28;20033;-61
2021/09/06 09:08:24;;;;;;;11.15;8.05;;;;;;;;;;4528288;28;21258;-63
2021/09/06 09:10:42;;;;;;;10.23;7.82;;;;;;;;;;4527399;28;20037;-61
2021/09/06 09:13:13;;;;;;;9.77;7.22;;;;;;;;;;4533941;28;20051;-62
2021/09/06 09:15:37;;;;;;;9.75;7.18;;;;;;;;;;4506924;28;20611;-61
2021/09/06 09:18:25;;;;;;;10.30;7.57;;;;;;;;;;4536863;28;20772;-61
2021/09/06 09:20:57;;;;;;;9.80;7.63;;;;;;;;;;4522021;28;20033;-62
2021/09/06 09:24:01;;;;;;;9.98;7.55;;;;;;;;;;4518531;28;20029;-62
2021/09/06 09:26:30;;;;;;;10.02;6.88;;;;;;;;;;4507708;28;20406;-63
2021/09/06 09:28:57;;;;;;;10.23;7.38;;;;;;;;;;4536239;28;20804;-61
2021/09/06 09:31:32;;;;;;;11.35;7.15;;;;;;;;;;4531200;28;21025;-61
2021/09/06 09:33:55;;;;;;;10.05;7.22;;;;;;;;;;4534854;28;21726;-61
2021/09/06 09:36:35;;;;;;;11.37;8.10;;;;;;;;;;4551295;28;20048;-62
2021/09/06 09:38:45;;;;;;;10.50;7.88;;;;;;;;;;4536020;28;20766;-62
2021/09/06 09:40:59;;;;;;;10.38;7.63;;;;;;;;;;4535861;28;20552;-65
2021/09/06 09:43:10;;;;;;;9.88;7.07;;;;;;;;;;4530923;28;20045;-62
2021/09/06 09:45:25;;;;;;;10.30;7.30;;;;;;;;;;4537298;28;20508;-62
2021/09/06 09:48:14;;;;;;;10.45;7.80;;;;;;;;;;4531424;28;20598;-62
2021/09/06 09:50:26;;;;;;;;;;;;;;;;;;4554849;28;20079;-62
2021/09/06 09:52:38;;;;;;;10.50;7.88;;;;;;;;;;4539452;28;19916;-62
2021/09/06 09:54:53;;;;;;;11.82;8.48;;;;;;;;;;4538411;28;20037;-62
2021/09/06 09:57:04;;;;;;;10.55;8.00;;;;;;;;;;4539334;28;20057;-62
2021/09/06 09:59:18;;;;;;;10.85;8.32;;;;;;;;;;4539476;28;20762;-62
2021/09/06 10:01:34;;;;;;;10.68;7.75;;;;;;;;;;4539676;28;20029;-62
2021/09/06 10:03:44;;;;;;;10.10;7.80;;;;;;;;;;4537451;28;20040;-62
2021/09/06 10:05:56;;;;;;;11.45;8.55;;;;;;;;;;4538688;28;20033;-62
2021/09/06 10:08:12;;;;;;;11.17;8.20;;;;;;;;;;4537541;28;20033;-63
2021/09/06 10:10:25;;;;;;;11.05;8.30;;;;;;;;;;4537914;28;20044;-62
2021/09/06 10:12:36;;;;;;;11.23;8.50;;;;;;;;;;4539501;28;20025;-62
2021/09/06 10:14:50;;;;;;;11.30;8.10;;;;;;;;;;4539363;28;20739;-62
2021/09/06 10:17:05;;;;;;;10.98;8.10;;;;;;;;;;4537713;28;20114;-62
2021/09/06 10:19:17;;;;;;;10.77;7.97;;;;;;;;;;4537820;28;20059;-62
2021/09/06 10:21:38;;;;;;;11.20;8.18;;;;;;;;;;4539129;28;20127;-63
2021/09/06 10:23:51;;;;;;;10.65;7.90;;;;;;;;;;4539247;28;20029;-63
2021/09/06 10:26:09;;;;;;;10.45;8.07;;;;;;;;;;4538452;28;20029;-62
2021/09/06 10:28:30;;;;;;;11.68;8.32;;;;;;;;;;4538414;28;20039;-63
2021/09/06 10:30:43;;;;;;;10.40;7.50;;;;;;;;;;4546751;28;20160;-63
2021/09/06 10:32:54;;;;;;;10.18;7.43;;;;;;;;;;4537773;28;20037;-63
2021/09/06 10:35:20;;;;;;;10.13;7.68;;;;;;;;;;4531113;28;20615;-63
2021/09/06 10:37:35;;;;;;;10.02;7.68;;;;;;;;;;4535040;28;20044;-60
2021/09/06 10:39:46;;;;;;;10.98;7.93;;;;;;;;;;4540648;28;20722;-60
2021/09/06 10:42:10;;;;;;;10.27;7.57;;;;;;;;;;4541925;28;20088;-61
2021/09/06 10:44:24;;;;;;;10.35;7.60;;;;;;;;;;4540564;28;20608;-61
2021/09/06 10:46:36;;;;;;;9.70;7.30;;;;;;;;;;4540132;28;20150;-62
2021/09/06 10:48:46;;;;;;;;;;;;;;;;;;4524133;28;20120;-70
2021/09/06 10:50:58;;;;;;;8.93;6.80;;;;;;;;;;4542461;28;20060;-76
2021/09/06 10:53:08;;;;;;;8.82;6.63;;;;;;;;;;4541969;28;20017;-74
2021/09/06 10:55:19;;;;;;;9.17;6.70;;;;;;;;;;4540770;28;20477;-80
2021/09/06 10:57:36;;;;;;;8.23;5.93;;;;;;;;;;4540217;28;20041;-62
2021/09/06 10:59:47;;;;;;;9.85;6.82;;;;;;;;;;4540400;28;20103;-62
2021/09/06 11:01:58;;;;;;;9.00;6.38;;;;;;;;;;4535095;28;20147;-62
2021/09/06 11:04:12;;;;;;;9.65;6.63;;;;;;;;;;4556125;28;20028;-62
2021/09/06 11:06:27;;;;;;;8.93;6.50;;;;;;;;;;4540351;28;20095;-62
2021/09/06 11:08:40;;;;;;;8.48;5.85;;;;;;;;;;4556577;28;20033;-62
2021/09/06 11:10:52;;;;;;;;;;;;;;;;;;4542172;28;20079;-63
2021/09/06 11:13:03;;;;;;;9.80;6.50;;;;;;;;;;4556891;28;19939;-63
2021/09/06 11:15:22;;;;;;;9.73;6.60;;;;;;;;;;4541019;28;20052;-65
2021/09/06 11:17:32;;;;;;;8.45;5.85;;;;;;;;;;4541191;28;20083;-63
2021/09/06 11:19:43;;;;;;;9.32;6.15;;;;;;;;;;4540442;28;20048;-62
2021/09/06 11:21:58;;;;;;;8.63;5.90;;;;;;;;;;4541523;28;20120;-63
2021/09/06 11:24:09;;;;;;;7.78;5.72;;;;;;;;;;4541592;28;20033;-62
2021/09/06 11:26:28;;;;;;;8.13;5.70;;;;;;;;;;4541185;28;20040;-62
2021/09/06 11:28:44;;;;;;;8.20;6.00;;;;;;;;;;4540926;28;20031;-62
2021/09/06 11:30:57;;;;;;;8.70;5.93;;;;;;;;;;4540856;28;20662;-63
2021/09/06 11:33:09;;;;;;;9.32;6.63;;;;;;;;;;4533754;28;20072;-63
2021/09/06 11:35:20;;;;;;;8.52;6.25;;;;;;;;;;4539980;28;20851;-63
2021/09/06 11:37:31;;;;;;;9.27;6.43;;;;;;;;;;4540879;28;20040;-62
2021/09/06 11:39:43;;;;;;;7.97;5.72;;;;;;;;;;4539363;28;20041;-62
2021/09/06 11:41:54;;;;;;;8.85;6.03;;;;;;;;;;4556579;28;20591;-62
2021/09/06 11:44:06;;;;;;;8.70;6.43;;;;;;;;;;4539969;28;20033;-62
2021/09/06 11:46:17;;;;;;;8.95;6.00;;;;;;;;;;4541239;28;20040;-62
2021/09/06 11:48:27;;;;;;;9.80;5.97;;;;;;;;;;4538655;28;20032;-62
2021/09/06 11:50:40;;;;;;;8.53;5.97;;;;;;;;;;4556001;28;20060;-63
2021/09/06 11:53:02;;;;;;;9.05;6.18;;;;;;;;;;4541411;28;20043;-63
2021/09/06 11:55:15;;;;;;;8.77;6.03;;;;;;;;;;4541322;28;20072;-63
2021/09/06 11:57:32;;;;;;;9.02;6.78;;;;;;;;;;4540819;28;20062;-62
2021/09/06 11:59:50;;;;;;;8.25;5.95;;;;;;;;;;4540654;28;20120;-63
2021/09/06 12:02:10;;;;;;;9.23;6.68;;;;;;;;;;4541534;28;20036;-62
2021/09/06 12:04:20;;;;;;;10.05;6.80;;;;;;;;;;4556274;28;20033;-62
2021/09/06 12:06:30;;;;;;;8.70;6.30;;;;;;;;;;4540177;28;20037;-62
2021/09/06 12:08:56;;;;;;;9.30;6.47;;;;;;;;;;4534939;28;20029;-63
2021/09/06 12:11:10;;;;;;;9.00;6.68;;;;;;;;;;4541211;28;20037;-62
2021/09/06 12:13:21;;;;;;;9.07;6.47;;;;;;;;;;4541346;28;20068;-62
2021/09/06 12:15:33;;;;;;;;;;;;;;;;;;4541289;28;20037;-63
2021/09/06 12:17:44;;;;;;;8.35;5.90;;;;;;;;;;4540903;28;21052;-62
2021/09/06 12:19:55;;;;;;;9.10;6.72;;;;;;;;;;4538745;28;20076;-62
2021/09/06 12:22:19;;;;;;;8.70;6.40;;;;;;;;;;4540382;28;20394;-63
2021/09/06 12:24:30;;;;;;;9.73;6.90;;;;;;;;;;4529850;28;20033;-63
2021/09/06 12:26:43;;;;;;;9.53;6.73;;;;;;;;;;4541160;28;20060;-63
2021/09/06 12:28:56;;;;;;;10.23;6.88;;;;;;;;;;4540966;28;20555;-62
2021/09/06 12:31:07;;;;;;;10.63;6.55;;;;;;;;;;4528266;28;20118;-63
2021/09/06 12:33:17;;;;;;;9.93;7.03;;;;;;;;;;4540471;28;20040;-63
2021/09/06 12:35:28;;;;;;;9.50;6.60;;;;;;;;;;4540936;28;20033;-62
2021/09/06 12:37:42;;;;;;;8.83;6.50;;;;;;;;;;4539208;28;20643;-62
2021/09/06 12:39:53;;;;;;;9.82;6.97;;;;;;;;;;4540169;28;20041;-62
2021/09/06 12:42:04;;;;;;;9.83;6.93;;;;;;;;;;4540772;28;20020;-63
2021/09/06 12:44:14;;;;;;;9.05;6.22;;;;;;;;;;4540296;28;20067;-63
2021/09/06 12:46:26;;;;;;;8.30;6.17;;;;;;;;;;4540691;28;20037;-63
2021/09/06 12:48:37;;;;;;;9.93;7.20;;;;;;;;;;4540925;28;20126;-63
2021/09/06 12:50:47;;;;;;;9.60;6.80;;;;;;;;;;4555669;28;20468;-63
2021/09/06 12:52:58;;;;;;;9.17;6.30;;;;;;;;;;4538627;28;20032;-63
2021/09/06 12:55:09;;;;;;;9.30;6.47;;;;;;;;;;4540439;28;20024;-62
2021/09/06 12:57:19;;;;;;;10.18;7.00;;;;;;;;;;4540315;28;20103;-63
2021/09/06 12:59:29;;;;;;;9.33;6.83;;;;;;;;;;4538944;28;20086;-62
2021/09/06 13:01:40;;;;;;;9.43;7.13;;;;;;;;;;4539658;28;20473;-63
2021/09/06 13:03:50;;;;;;;10.07;7.27;;;;;;;;;;4535208;28;20065;-63
2021/09/06 13:06:01;;;;;;;10.83;7.57;;;;;;;;;;4540386;28;20029;-62
2021/09/06 13:08:11;;;;;;;9.73;6.93;;;;;;;;;;4539237;28;20037;-63
2021/09/06 13:10:22;;;;;;;9.27;6.73;;;;;;;;;;4540761;28;20083;-63
2021/09/06 13:12:32;;;;;;;10.10;6.93;;;;;;;;;;4556038;28;20405;-63
2021/09/06 13:14:43;;;;;;;9.43;6.80;;;;;;;;;;4540710;28;20333;-62
2021/09/06 13:16:54;;;;;;;10.47;7.10;;;;;;;;;;4539230;28;20124;-63
2021/09/06 13:19:04;;;;;;;11.05;7.60;;;;;;;;;;4539529;28;20040;-62
2021/09/06 13:21:16;;;;;;;8.30;6.03;;;;;;;;;;4540174;28;20040;-62
2021/09/06 13:23:27;;;;;;;9.77;7.32;;;;;;;;;;4539727;28;20036;-63
2021/09/06 13:25:37;;;;;;;9.50;7.23;;;;;;;;;;4539814;28;20036;-63
2021/09/06 13:27:47;;;;;;;9.50;6.83;;;;;;;;;;4555595;28;20033;-62
2021/09/06 13:29:58;;;;;;;9.03;6.37;;;;;;;;;;4540037;28;20044;-63